Time;durP1;ratioP1;P1;durP2;ratioP2;P2;SDS_P1;SDS_P2;PMS_P1;PMS_P2;Temp;Humidity;BMP_temperature;BMP_pressure;BME280_temperature;BME280_humidity;BME280_pressure;Samples;Min_cycle;Max_cycle;Signal;HPM_P1;HPM_P2
2023/07/22 00:00:43;;;;;;;10.30;8.70;;;20.60;86.30;;;;;;5073464;28;20504;-65
2023/07/22 00:03:09;;;;;;;12.50;9.30;;;20.60;86.40;;;;;;5075524;28;20021;-64
2023/07/22 00:05:34;;;;;;;12.07;8.93;;;20.60;86.50;;;;;;5075067;28;20036;-65
2023/07/22 00:08:00;;;;;;;10.93;8.45;;;20.60;86.50;;;;;;5075727;28;20029;-64
2023/07/22 00:10:26;;;;;;;10.25;9.05;;;20.60;86.60;;;;;;5074069;28;20021;-65
2023/07/22 00:12:51;;;;;;;11.30;9.23;;;20.60;87.00;;;;;;5075424;28;20041;-65
2023/07/22 00:15:17;;;;;;;11.18;8.57;;;20.60;86.90;;;;;;5075346;28;20150;-65
2023/07/22 00:17:43;;;;;;;10.18;9.07;;;20.60;86.90;;;;;;5074689;28;20052;-65
2023/07/22 00:20:13;;;;;;;10.55;8.80;;;20.50;87.10;;;;;;5073188;28;20048;-66
2023/07/22 00:22:39;;;;;;;11.43;8.93;;;20.60;87.30;;;;;;5075011;28;20021;-65
2023/07/22 00:25:09;;;;;;;12.27;9.65;;;20.50;87.30;;;;;;5075374;28;20040;-65
2023/07/22 00:27:36;;;;;;;9.88;8.88;;;20.50;87.40;;;;;;5072809;28;20105;-64
2023/07/22 00:30:01;;;;;;;10.80;8.93;;;20.50;87.50;;;;;;5075128;28;20016;-66
2023/07/22 00:32:27;;;;;;;10.55;8.20;;;20.50;87.70;;;;;;5074742;28;20036;-66
2023/07/22 00:34:53;;;;;;;11.60;9.25;;;20.50;87.80;;;;;;5074673;28;20023;-64
2023/07/22 00:37:18;;;;;;;10.93;9.15;;;20.50;87.80;;;;;;5073875;28;20029;-64
2023/07/22 00:39:44;;;;;;;10.52;9.18;;;20.50;88.00;;;;;;5074275;28;20039;-64
2023/07/22 00:42:10;;;;;;;10.50;9.38;;;20.40;88.20;;;;;;5072717;28;20064;-63
2023/07/22 00:44:36;;;;;;;10.98;9.30;;;20.50;88.40;;;;;;5074632;28;20060;-64
2023/07/22 00:47:03;;;;;;;9.93;8.88;;;20.50;88.30;;;;;;5074749;28;20032;-64
2023/07/22 00:49:29;;;;;;;13.20;9.48;;;20.50;88.40;;;;;;5074528;28;20041;-64
2023/07/22 00:52:00;;;;;;;12.05;9.57;;;20.40;88.30;;;;;;5056529;28;20059;-64
2023/07/22 00:54:26;;;;;;;13.05;9.48;;;20.40;88.40;;;;;;5072664;28;20584;-64
2023/07/22 00:56:52;;;;;;;10.25;8.50;;;20.40;88.40;;;;;;5055804;28;20116;-65
2023/07/22 00:59:18;;;;;;;11.70;9.38;;;20.40;88.40;;;;;;5074484;28;20032;-65
2023/07/22 01:01:44;;;;;;;11.13;9.18;;;20.40;88.60;;;;;;5074291;28;20461;-64
2023/07/22 01:04:10;;;;;;;11.77;9.57;;;20.40;88.70;;;;;;5072295;28;20065;-65
2023/07/22 01:06:36;;;;;;;10.70;9.30;;;20.30;88.80;;;;;;5074354;28;20032;-65
2023/07/22 01:09:02;;;;;;;13.02;9.95;;;20.30;89.00;;;;;;5074505;28;20090;-66
2023/07/22 01:11:27;;;;;;;11.80;9.85;;;20.30;89.00;;;;;;5073106;28;20050;-67
2023/07/22 01:13:57;;;;;;;11.25;9.80;;;20.30;89.00;;;;;;5070785;28;20043;-64
2023/07/22 01:16:25;;;;;;;11.65;9.32;;;20.30;89.10;;;;;;5054013;28;20029;-66
2023/07/22 01:18:52;;;;;;;13.55;9.48;;;20.30;89.20;;;;;;5054070;28;20045;-66
2023/07/22 01:21:20;;;;;;;15.02;9.98;;;20.30;89.40;;;;;;5059757;28;20465;-67
2023/07/22 01:23:47;;;;;;;12.68;9.68;;;20.30;89.40;;;;;;5073948;28;20527;-64
2023/07/22 01:26:13;;;;;;;13.30;10.30;;;20.30;89.50;;;;;;5074105;28;20031;-64
2023/07/22 01:28:38;;;;;;;9.68;8.68;;;20.20;89.70;;;;;;5073899;28;20024;-65
2023/07/22 01:31:05;;;;;;;11.82;9.55;;;20.20;89.90;;;;;;5072626;28;20025;-63
2023/07/22 01:33:31;;;;;;;15.50;9.23;;;20.20;89.80;;;;;;5073900;28;20029;-64
2023/07/22 01:35:57;;;;;;;12.52;10.00;;;20.10;90.30;;;;;;5055875;28;20016;-64
2023/07/22 01:38:23;;;;;;;12.18;10.20;;;20.10;90.10;;;;;;5073942;28;20035;-64
2023/07/22 01:40:48;;;;;;;10.68;9.57;;;20.10;90.00;;;;;;5071404;28;20024;-63
2023/07/22 01:43:14;;;;;;;10.52;9.30;;;20.10;90.00;;;;;;5074070;28;20056;-64
2023/07/22 01:45:40;;;;;;;12.52;9.27;;;20.10;90.00;;;;;;5073282;28;20216;-66
2023/07/22 01:48:06;;;;;;;14.57;9.45;;;20.10;90.10;;;;;;5073794;28;20105;-64
2023/07/22 01:50:32;;;;;;;12.48;9.60;;;20.10;90.10;;;;;;5073380;28;20025;-64
2023/07/22 01:52:57;;;;;;;14.90;9.80;;;20.10;90.10;;;;;;5073042;28;20032;-64
2023/07/22 01:55:23;;;;;;;11.50;9.20;;;20.10;90.20;;;;;;5052825;28;20060;-65
2023/07/22 01:57:49;;;;;;;11.18;9.85;;;20.10;90.20;;;;;;5053424;28;20025;-65
2023/07/22 02:00:15;;;;;;;10.70;9.45;;;20.10;90.20;;;;;;5053236;28;20096;-65
2023/07/22 02:02:42;;;;;;;10.18;9.10;;;20.00;90.20;;;;;;5069339;28;20489;-65
2023/07/22 02:05:10;;;;;;;11.02;8.80;;;20.00;90.30;;;;;;5073467;28;20099;-67
2023/07/22 02:07:35;;;;;;;13.38;9.52;;;20.00;90.40;;;;;;5073086;28;20123;-64
2023/07/22 02:10:01;;;;;;;15.70;9.32;;;20.00;90.50;;;;;;5052955;28;20138;-65
2023/07/22 02:12:27;;;;;;;14.15;10.27;;;20.00;90.40;;;;;;5053086;28;20040;-64
2023/07/22 02:14:52;;;;;;;13.35;9.18;;;20.00;90.80;;;;;;5052894;28;20029;-65
2023/07/22 02:17:18;;;;;;;12.48;9.43;;;19.90;90.50;;;;;;5052802;28;20021;-64
2023/07/22 02:19:43;;;;;;;12.55;9.85;;;20.00;90.50;;;;;;5067927;28;20029;-64
2023/07/22 02:22:09;;;;;;;15.45;9.85;;;20.00;90.60;;;;;;5073198;28;20021;-64
2023/07/22 02:24:35;;;;;;;12.32;9.90;;;20.00;90.60;;;;;;5073058;28;20036;-64
2023/07/22 02:27:01;;;;;;;11.02;9.15;;;19.90;90.70;;;;;;5072693;28;20033;-67
2023/07/22 02:29:26;;;;;;;13.02;10.55;;;19.90;90.70;;;;;;5052577;28;20025;-64
2023/07/22 02:31:52;;;;;;;11.25;9.25;;;19.90;90.80;;;;;;5072969;28;20029;-67
2023/07/22 02:34:17;;;;;;;11.65;9.77;;;19.90;90.90;;;;;;5072986;28;20108;-64
2023/07/22 02:36:43;;;;;;;13.88;10.02;;;19.90;90.90;;;;;;5072811;28;20028;-64
2023/07/22 02:39:09;;;;;;;11.60;10.10;;;19.90;90.90;;;;;;5067083;28;20025;-64
2023/07/22 02:41:36;;;;;;;13.23;9.60;;;19.90;90.90;;;;;;5052631;28;20033;-64
2023/07/22 02:44:03;;;;;;;16.02;9.90;;;19.90;91.00;;;;;;5034801;28;20017;-66
2023/07/22 02:46:29;;;;;;;12.32;9.75;;;19.90;91.10;;;;;;5052815;28;20074;-66
2023/07/22 02:48:55;;;;;;;11.98;10.18;;;19.80;91.10;;;;;;5058998;28;20037;-64
2023/07/22 02:51:20;;;;;;;14.30;10.30;;;19.90;91.00;;;;;;5072520;28;20033;-64
2023/07/22 02:53:46;;;;;;;12.70;10.23;;;19.90;91.10;;;;;;5072891;28;20025;-64
2023/07/22 02:56:12;;;;;;;14.90;10.02;;;19.90;91.20;;;;;;5072744;28;20028;-64
2023/07/22 02:58:38;;;;;;;13.45;9.88;;;19.80;91.20;;;;;;5070374;28;20024;-64
2023/07/22 03:01:05;;;;;;;12.07;9.25;;;19.80;91.30;;;;;;5054885;28;20029;-65
2023/07/22 03:03:33;;;;;;;13.70;10.30;;;19.80;91.30;;;;;;5058042;28;20471;-64
2023/07/22 03:05:59;;;;;;;12.48;10.30;;;19.80;91.40;;;;;;5052250;28;20549;-66
2023/07/22 03:08:25;;;;;;;12.05;9.95;;;19.80;91.40;;;;;;5052577;28;20021;-66
2023/07/22 03:10:50;;;;;;;14.75;10.07;;;19.70;91.40;;;;;;5056267;28;20066;-66
2023/07/22 03:13:16;;;;;;;13.07;9.70;;;19.80;91.50;;;;;;5057194;28;20035;-66
2023/07/22 03:15:42;;;;;;;17.08;10.65;;;19.70;91.50;;;;;;5052649;28;20025;-65
2023/07/22 03:18:09;;;;;;;15.00;10.27;;;19.70;91.50;;;;;;5052565;28;20021;-65
2023/07/22 03:20:36;;;;;;;13.75;9.55;;;19.70;91.60;;;;;;5039328;28;20430;-64
2023/07/22 03:23:02;;;;;;;14.40;9.98;;;19.70;91.70;;;;;;5036147;28;20030;-65
2023/07/22 03:25:28;;;;;;;13.63;10.68;;;19.60;91.70;;;;;;5036316;28;20064;-65
2023/07/22 03:27:54;;;;;;;12.93;10.52;;;19.60;91.70;;;;;;5036083;28;20036;-64
2023/07/22 03:30:22;;;;;;;13.75;10.35;;;19.60;91.80;;;;;;5038700;28;20034;-65
2023/07/22 03:32:48;;;;;;;16.50;11.50;;;19.60;91.80;;;;;;5062448;28;20025;-64
2023/07/22 03:35:14;;;;;;;13.50;11.10;;;19.60;91.80;;;;;;5056313;28;20146;-64
2023/07/22 03:37:40;;;;;;;15.00;11.07;;;19.60;91.90;;;;;;5056128;28;20052;-65
2023/07/22 03:40:19;;;;;;;16.08;11.23;;;19.60;91.90;;;;;;5056054;28;20082;-64
2023/07/22 03:42:50;;;;;;;16.73;11.23;;;19.50;91.90;;;;;;5054604;28;20035;-65
2023/07/22 03:45:20;;;;;;;16.88;11.18;;;19.50;92.00;;;;;;5055146;28;20025;-64
2023/07/22 03:47:47;;;;;;;13.50;11.18;;;19.50;92.10;;;;;;5055863;28;20036;-64
2023/07/22 03:50:13;;;;;;;16.77;10.77;;;19.50;92.40;;;;;;5056031;28;20075;-64
2023/07/22 03:52:38;;;;;;;16.02;10.73;;;19.50;92.20;;;;;;5055508;28;20068;-64
2023/07/22 03:55:05;;;;;;;13.10;10.48;;;19.40;92.20;;;;;;5055805;28;20048;-64
2023/07/22 03:57:30;;;;;;;12.77;10.57;;;19.40;92.30;;;;;;5055469;28;20051;-66
2023/07/22 03:59:56;;;;;;;18.38;10.75;;;19.40;92.30;;;;;;5055712;28;20049;-64
2023/07/22 04:02:23;;;;;;;14.52;11.38;;;19.40;92.40;;;;;;5055690;28;20025;-65
2023/07/22 04:04:49;;;;;;;16.10;10.98;;;19.40;92.40;;;;;;5055606;28;20466;-64
2023/07/22 04:07:15;;;;;;;17.10;10.45;;;19.40;92.50;;;;;;5037429;28;20383;-65
2023/07/22 04:09:41;;;;;;;11.40;10.13;;;19.40;92.60;;;;;;5055540;28;20021;-65
2023/07/22 04:12:07;;;;;;;16.10;11.02;;;19.40;92.70;;;;;;5055168;28;20359;-65
2023/07/22 04:14:33;;;;;;;13.23;10.50;;;19.40;92.70;;;;;;5055382;28;20061;-66
2023/07/22 04:16:58;;;;;;;15.43;11.18;;;19.40;92.70;;;;;;5055457;28;20056;-64
2023/07/22 04:19:24;;;;;;;14.55;10.57;;;19.40;92.70;;;;;;5055140;28;20025;-64
2023/07/22 04:21:49;;;;;;;17.25;11.32;;;19.30;93.10;;;;;;5055216;28;20029;-65
2023/07/22 04:24:15;;;;;;;15.38;10.75;;;19.30;92.90;;;;;;5055153;28;20032;-65
2023/07/22 04:26:43;;;;;;;12.93;10.40;;;19.40;92.90;;;;;;5054969;28;20059;-64
2023/07/22 04:29:09;;;;;;;16.02;11.32;;;19.30;93.00;;;;;;5055141;28;20032;-66
2023/07/22 04:31:35;;;;;;;14.80;10.40;;;19.30;93.00;;;;;;5053877;28;20017;-67
2023/07/22 04:34:00;;;;;;;15.57;10.80;;;19.30;93.00;;;;;;5054979;28;20492;-64
2023/07/22 04:36:26;;;;;;;16.45;10.65;;;19.40;93.00;;;;;;5055090;28;20064;-64
2023/07/22 04:38:51;;;;;;;14.63;11.15;;;19.40;93.00;;;;;;5055008;28;20025;-64
2023/07/22 04:41:17;;;;;;;15.10;10.75;;;19.30;93.00;;;;;;5054519;28;20036;-64
2023/07/22 04:43:42;;;;;;;12.30;10.45;;;19.30;93.00;;;;;;5055072;28;20033;-65
2023/07/22 04:46:08;;;;;;;14.32;10.73;;;19.30;93.10;;;;;;5054878;28;20040;-64
2023/07/22 04:48:34;;;;;;;13.13;10.73;;;19.30;93.10;;;;;;5054754;28;20029;-64
2023/07/22 04:50:59;;;;;;;12.52;9.95;;;19.30;93.10;;;;;;5054599;28;20120;-65
2023/07/22 04:53:25;;;;;;;14.05;10.07;;;19.30;93.10;;;;;;5054453;28;20021;-66
2023/07/22 04:55:50;;;;;;;15.68;11.02;;;19.30;93.10;;;;;;5054539;28;20029;-66
2023/07/22 04:58:16;;;;;;;13.70;9.95;;;19.30;93.20;;;;;;5054496;28;20044;-64
2023/07/22 05:00:43;;;;;;;14.43;10.98;;;19.30;93.20;;;;;;5036765;28;20055;-65
2023/07/22 05:03:08;;;;;;;12.68;10.35;;;19.20;93.30;;;;;;5054334;28;20024;-64
2023/07/22 05:05:34;;;;;;;15.93;9.98;;;19.30;93.30;;;;;;5054045;28;20032;-66
2023/07/22 05:07:59;;;;;;;15.55;10.93;;;19.30;93.30;;;;;;5054393;28;20474;-66
2023/07/22 05:10:25;;;;;;;14.30;10.05;;;19.30;93.40;;;;;;5054054;28;20021;-66
2023/07/22 05:12:50;;;;;;;15.32;10.68;;;19.20;93.40;;;;;;5054576;28;20562;-64
2023/07/22 05:15:16;;;;;;;14.25;10.68;;;19.30;93.40;;;;;;5054371;28;20029;-64
2023/07/22 05:17:42;;;;;;;13.52;10.25;;;19.30;93.40;;;;;;5054288;28;20056;-68
2023/07/22 05:20:11;;;;;;;15.68;10.02;;;19.30;93.40;;;;;;5053947;28;20504;-63
2023/07/22 05:22:37;;;;;;;19.25;10.73;;;19.30;93.40;;;;;;5053921;28;20032;-66
2023/07/22 05:25:04;;;;;;;12.07;9.77;;;19.30;93.50;;;;;;5053977;28;20374;-64
2023/07/22 05:27:30;;;;;;;15.68;9.85;;;19.30;93.60;;;;;;5053944;28;20490;-64
2023/07/22 05:29:55;;;;;;;13.43;9.73;;;19.30;93.60;;;;;;5053771;28;20103;-66
2023/07/22 05:32:21;;;;;;;12.07;9.98;;;19.30;93.50;;;;;;5054136;28;20035;-66
2023/07/22 05:34:46;;;;;;;15.05;10.60;;;19.30;93.90;;;;;;5054148;28;20066;-66
2023/07/22 05:37:12;;;;;;;12.52;9.45;;;19.30;93.70;;;;;;5053656;28;20480;-65
2023/07/22 05:39:38;;;;;;;13.25;10.48;;;19.30;93.80;;;;;;5053835;28;20029;-66
2023/07/22 05:42:04;;;;;;;15.40;10.00;;;19.30;93.80;;;;;;5053709;28;20035;-66
2023/07/22 05:44:29;;;;;;;14.30;9.63;;;19.40;93.80;;;;;;5053702;28;20117;-68
2023/07/22 05:46:55;;;;;;;11.38;9.75;;;19.40;93.80;;;;;;5053496;28;20182;-68
2023/07/22 05:49:20;;;;;;;13.75;9.93;;;19.40;94.00;;;;;;5050688;28;20039;-67
2023/07/22 05:51:46;;;;;;;13.65;10.70;;;19.40;94.00;;;;;;5053147;28;20037;-68
2023/07/22 05:54:12;;;;;;;14.27;9.57;;;19.40;94.00;;;;;;5052854;28;20055;-66
2023/07/22 05:56:37;;;;;;;11.95;9.82;;;19.40;94.20;;;;;;5052164;28;20114;-68
2023/07/22 05:59:03;;;;;;;14.80;10.38;;;19.40;94.20;;;;;;5051373;28;20360;-66
2023/07/22 06:01:28;;;;;;;13.45;9.93;;;19.50;94.20;;;;;;5052258;28;20489;-65
2023/07/22 06:03:54;;;;;;;13.75;9.95;;;19.50;94.10;;;;;;5051783;28;20471;-66
2023/07/22 06:06:19;;;;;;;14.13;9.68;;;19.50;94.10;;;;;;5053168;28;20025;-67
2023/07/22 06:08:45;;;;;;;14.23;9.90;;;19.50;94.10;;;;;;5053375;28;20517;-65
2023/07/22 06:11:10;;;;;;;13.90;9.18;;;19.60;94.20;;;;;;5053122;28;20449;-66
2023/07/22 06:13:36;;;;;;;14.45;9.73;;;19.50;94.20;;;;;;5053342;28;20052;-67
2023/07/22 06:16:02;;;;;;;17.33;9.48;;;19.60;94.20;;;;;;5053136;28;20021;-67
2023/07/22 06:18:28;;;;;;;11.85;8.95;;;19.60;94.20;;;;;;5053224;28;20029;-66
2023/07/22 06:20:53;;;;;;;15.65;9.20;;;19.70;94.10;;;;;;5052899;28;20107;-66
2023/07/22 06:23:19;;;;;;;16.10;9.48;;;19.80;94.20;;;;;;5053229;28;20017;-68
2023/07/22 06:25:44;;;;;;;13.02;8.93;;;19.80;94.10;;;;;;5052618;28;20048;-67
2023/07/22 06:28:10;;;;;;;12.43;8.98;;;19.80;94.10;;;;;;5048155;28;20036;-68
2023/07/22 06:30:35;;;;;;;13.38;8.25;;;19.80;94.30;;;;;;5052394;28;20033;-65
2023/07/22 06:33:01;;;;;;;14.15;8.93;;;19.90;94.00;;;;;;5053025;28;20032;-67
2023/07/22 06:35:27;;;;;;;11.50;8.77;;;19.90;94.00;;;;;;5041567;28;20021;-65
2023/07/22 06:37:53;;;;;;;15.93;9.90;;;20.00;94.20;;;;;;5033282;28;20029;-66
2023/07/22 06:40:18;;;;;;;16.30;9.63;;;20.00;94.10;;;;;;5038989;28;20025;-66
2023/07/22 06:42:44;;;;;;;10.73;7.75;;;20.00;94.10;;;;;;5052207;28;20028;-67
2023/07/22 06:45:10;;;;;;;12.85;8.73;;;20.00;94.00;;;;;;5045942;28;20478;-65
2023/07/22 06:47:36;;;;;;;12.75;9.02;;;20.00;93.90;;;;;;5032864;28;20115;-65
2023/07/22 06:50:04;;;;;;;11.30;8.75;;;20.00;94.00;;;;;;5046147;28;20120;-67
2023/07/22 06:52:30;;;;;;;12.18;7.80;;;20.00;94.00;;;;;;5052630;28;20060;-66
2023/07/22 06:54:55;;;;;;;13.75;8.55;;;20.10;94.10;;;;;;5054054;28;20494;-65
2023/07/22 06:57:21;;;;;;;10.40;6.80;;;20.00;94.10;;;;;;5061688;28;20021;-65
2023/07/22 06:59:47;;;;;;;10.30;6.85;;;20.00;93.90;;;;;;5076945;28;20020;-65
2023/07/22 07:02:12;;;;;;;11.68;7.97;;;20.00;94.20;;;;;;5067697;28;20466;-65
2023/07/22 07:04:38;;;;;;;11.80;7.25;;;20.10;94.10;;;;;;5061451;28;20036;-64
2023/07/22 07:07:04;;;;;;;9.43;6.63;;;20.10;94.50;;;;;;5050434;28;20040;-66
2023/07/22 07:09:30;;;;;;;10.25;6.57;;;20.10;94.10;;;;;;5049145;28;20033;-64
2023/07/22 07:11:58;;;;;;;11.30;7.63;;;20.20;94.10;;;;;;5054837;28;20033;-66
2023/07/22 07:14:27;;;;;;;11.60;6.75;;;20.20;94.30;;;;;;5045399;28;20021;-66
2023/07/22 07:16:52;;;;;;;9.20;5.78;;;20.30;94.20;;;;;;5056857;28;20027;-66
2023/07/22 07:19:18;;;;;;;7.97;6.18;;;20.20;94.00;;;;;;5063296;28;20024;-67
2023/07/22 07:21:44;;;;;;;13.65;6.72;;;20.30;93.90;;;;;;5043862;28;20033;-65
2023/07/22 07:24:09;;;;;;;8.75;6.07;;;20.30;94.10;;;;;;5056093;28;20028;-65
2023/07/22 07:26:35;;;;;;;8.65;5.88;;;20.40;94.00;;;;;;5052818;28;20029;-66
2023/07/22 07:29:00;;;;;;;10.35;5.38;;;20.40;94.10;;;;;;5049381;28;20009;-66
2023/07/22 07:31:27;;;;;;;11.15;6.18;;;20.40;94.40;;;;;;5040695;28;20114;-67
2023/07/22 07:33:53;;;;;;;8.30;4.80;;;20.40;94.10;;;;;;5056827;28;20014;-67
2023/07/22 07:36:18;;;;;;;8.43;5.40;;;20.50;93.80;;;;;;5054984;28;20024;-64
2023/07/22 07:38:44;;;;;;;8.15;4.85;;;20.50;93.90;;;;;;5050339;28;20025;-67
2023/07/22 07:41:13;;;;;;;11.75;4.90;;;20.50;93.80;;;;;;5045983;28;20158;-67
2023/07/22 07:43:42;;;;;;;8.60;4.25;;;20.50;93.80;;;;;;5048688;28;20028;-67
2023/07/22 07:46:26;;;;;;;12.95;4.90;;;20.60;93.80;;;;;;5044686;28;20037;-67
2023/07/22 07:48:56;;;;;;;7.53;4.13;;;20.60;93.60;;;;;;5050434;28;20022;-68
2023/07/22 07:51:24;;;;;;;10.48;4.60;;;20.60;94.00;;;;;;5054345;28;20028;-65
2023/07/22 07:53:51;;;;;;;5.65;3.50;;;20.60;93.60;;;;;;5045944;28;20056;-65
2023/07/22 07:56:18;;;;;;;7.07;4.28;;;20.60;93.60;;;;;;5054407;28;20044;-65
2023/07/22 07:58:45;;;;;;;7.50;3.70;;;20.70;93.70;;;;;;5052256;28;20029;-66
2023/07/22 08:01:11;;;;;;;8.35;4.30;;;20.70;93.70;;;;;;5054708;28;20108;-66
2023/07/22 08:03:37;;;;;;;6.90;4.10;;;20.70;93.70;;;;;;5060438;28;20528;-67
2023/07/22 08:06:03;;;;;;;7.15;3.45;;;20.70;93.60;;;;;;5035628;28;20060;-64
2023/07/22 08:08:29;;;;;;;7.65;4.10;;;20.80;93.60;;;;;;5047738;28;20048;-68
2023/07/22 08:11:02;;;;;;;8.68;3.58;;;20.80;93.60;;;;;;5052913;28;20408;-67
2023/07/22 08:13:29;;;;;;;8.00;3.83;;;20.80;93.50;;;;;;5055349;28;20112;-67
2023/07/22 08:15:55;;;;;;;10.45;4.18;;;20.80;93.50;;;;;;5055298;28;20476;-68
2023/07/22 08:18:20;;;;;;;7.88;3.35;;;20.90;93.40;;;;;;5054827;28;20051;-67
2023/07/22 08:20:47;;;;;;;10.95;4.30;;;20.90;93.30;;;;;;5054838;28;20436;-67
2023/07/22 08:23:13;;;;;;;8.88;3.47;;;20.90;93.30;;;;;;5059753;28;20028;-67
2023/07/22 08:25:39;;;;;;;10.93;3.85;;;21.00;93.30;;;;;;5058311;28;20529;-67
2023/07/22 08:28:04;;;;;;;6.15;3.47;;;20.90;93.20;;;;;;5054039;28;20121;-65
2023/07/22 08:30:30;;;;;;;6.93;3.10;;;21.00;93.20;;;;;;5066444;28;20090;-68
2023/07/22 08:32:55;;;;;;;7.70;3.10;;;21.00;93.10;;;;;;5057903;28;20086;-68
2023/07/22 08:35:22;;;;;;;9.10;3.75;;;21.00;93.10;;;;;;5069302;28;20056;-66
2023/07/22 08:37:48;;;;;;;4.80;2.75;;;21.00;93.00;;;;;;5063263;28;20485;-68
2023/07/22 08:40:13;;;;;;;6.15;3.05;;;21.10;92.90;;;;;;5057937;28;20046;-68
2023/07/22 08:42:41;;;;;;;7.10;3.20;;;21.10;92.80;;;;;;5071323;28;20058;-67
2023/07/22 08:45:09;;;;;;;6.55;2.53;;;21.10;92.90;;;;;;5054915;28;20043;-67
2023/07/22 08:47:36;;;;;;;4.82;3.00;;;21.10;93.00;;;;;;5054136;28;20029;-66
2023/07/22 08:50:05;;;;;;;8.35;3.10;;;21.10;92.60;;;;;;5054763;28;20024;-64
2023/07/22 08:52:32;;;;;;;6.00;2.85;;;21.10;92.60;;;;;;5054348;28;20048;-66
2023/07/22 08:54:59;;;;;;;7.55;2.75;;;21.20;92.60;;;;;;5054616;28;20016;-68
2023/07/22 08:57:26;;;;;;;6.57;2.88;;;21.20;92.50;;;;;;5054681;28;20489;-66
2023/07/22 08:59:52;;;;;;;12.95;3.85;;;21.30;92.50;;;;;;5055114;28;20082;-66
2023/07/22 09:02:18;;;;;;;8.13;3.42;;;21.30;92.40;;;;;;5055145;28;20029;-66
2023/07/22 09:04:45;;;;;;;6.82;2.78;;;21.40;92.00;;;;;;5057858;28;20026;-66
2023/07/22 09:07:12;;;;;;;6.93;3.03;;;21.40;92.00;;;;;;5061734;28;20112;-66
2023/07/22 09:09:38;;;;;;;9.48;3.22;;;21.40;92.00;;;;;;5064054;28;20093;-66
2023/07/22 09:12:06;;;;;;;6.38;2.67;;;21.40;92.00;;;;;;5072789;28;20051;-66
2023/07/22 09:14:33;;;;;;;4.85;2.17;;;21.40;92.00;;;;;;5055371;28;20028;-67
2023/07/22 09:16:59;;;;;;;5.25;2.50;;;21.50;91.90;;;;;;5055233;28;20036;-67
2023/07/22 09:19:24;;;;;;;5.03;2.58;;;21.50;91.90;;;;;;5055029;28;20025;-67
2023/07/22 09:21:50;;;;;;;4.00;2.22;;;21.50;91.90;;;;;;5053240;28;20123;-68
2023/07/22 09:24:27;;;;;;;4.88;2.30;;;21.60;91.90;;;;;;5039783;28;20845;-68
2023/07/22 09:26:54;;;;;;;6.35;2.53;;;21.60;92.20;;;;;;5053404;28;20443;-68
2023/07/22 09:29:41;;;;;;;6.15;2.60;;;21.60;91.80;;;;;;5053143;28;20070;-68
2023/07/22 09:32:07;;;;;;;4.78;2.50;;;21.60;91.70;;;;;;5036396;28;20025;-69
2023/07/22 09:34:33;;;;;;;3.97;2.05;;;21.60;91.60;;;;;;5040874;28;20108;-67
2023/07/22 09:37:03;;;;;;;3.78;2.13;;;21.60;91.50;;;;;;5054190;28;20082;-69
2023/07/22 09:39:29;;;;;;;3.90;2.10;;;21.70;91.50;;;;;;5053134;28;20032;-67
2023/07/22 09:41:56;;;;;;;3.90;1.90;;;21.70;91.40;;;;;;5053840;28;20032;-68
2023/07/22 09:44:22;;;;;;;5.00;2.13;;;21.70;91.40;;;;;;5057285;28;20481;-68
2023/07/22 09:46:49;;;;;;;3.47;2.10;;;21.70;91.30;;;;;;5057603;28;20155;-68
2023/07/22 09:49:17;;;;;;;5.00;2.33;;;21.70;91.30;;;;;;5057353;28;20025;-68
2023/07/22 09:51:43;;;;;;;5.45;2.50;;;21.80;91.20;;;;;;5031537;28;20444;-68
2023/07/22 09:54:08;;;;;;;5.53;2.17;;;21.80;91.20;;;;;;5052760;28;20105;-68
2023/07/22 09:56:45;;;;;;;9.10;2.40;;;21.80;91.10;;;;;;5043841;28;20032;-68
2023/07/22 09:59:11;;;;;;;4.60;2.70;;;21.80;91.00;;;;;;5057166;28;20024;-66
2023/07/22 10:01:39;;;;;;;5.05;1.80;;;21.90;90.90;;;;;;5043799;28;20485;-67
2023/07/22 10:04:06;;;;;;;4.70;1.80;;;21.90;90.80;;;;;;5050700;28;20032;-68
2023/07/22 10:06:33;;;;;;;5.32;1.95;;;21.90;90.80;;;;;;5058973;28;20070;-68
2023/07/22 10:09:07;;;;;;;4.97;2.28;;;21.90;90.70;;;;;;5059278;28;20021;-68
2023/07/22 10:11:34;;;;;;;3.88;2.17;;;21.90;90.60;;;;;;5052729;28;20059;-67
2023/07/22 10:14:01;;;;;;;4.68;2.15;;;21.90;90.50;;;;;;5050424;28;20032;-68
2023/07/22 10:16:27;;;;;;;6.55;1.77;;;21.90;90.20;;;;;;5059826;28;20069;-68
2023/07/22 10:18:53;;;;;;;3.03;1.20;;;22.00;90.10;;;;;;5054114;28;20096;-68
2023/07/22 10:21:19;;;;;;;3.72;1.70;;;22.00;90.00;;;;;;5060942;28;21381;-68
2023/07/22 10:23:48;;;;;;;4.35;1.98;;;22.00;89.90;;;;;;5051691;28;20454;-67
2023/07/22 10:26:16;;;;;;;3.22;1.85;;;22.00;89.50;;;;;;5065930;28;20037;-68
2023/07/22 10:28:44;;;;;;;4.78;1.95;;;22.00;89.30;;;;;;5033083;28;20124;-68
2023/07/22 10:31:10;;;;;;;9.35;2.13;;;22.10;89.00;;;;;;5047848;28;20374;-71
2023/07/22 10:33:35;;;;;;;4.90;1.98;;;22.20;88.30;;;;;;5065984;28;20474;-75
2023/07/22 10:36:07;;;;;;;4.82;1.50;;;22.30;87.70;;;;;;5051169;28;20029;-74
2023/07/22 10:38:33;;;;;;;4.37;1.83;;;22.30;87.30;;;;;;5047423;28;20049;-79
2023/07/22 10:40:59;;;;;;;7.32;1.83;;;22.30;86.70;;;;;;5048362;28;20045;-81
2023/07/22 10:43:35;;;;;;;5.40;1.90;;;22.40;86.30;;;;;;5048939;28;20040;-76
2023/07/22 10:46:10;;;;;;;7.25;1.48;;;22.40;85.90;;;;;;5046063;28;20820;-75
2023/07/22 10:48:41;;;;;;;7.60;1.70;;;22.40;85.70;;;;;;5048067;28;20069;-73
2023/07/22 10:51:11;;;;;;;7.93;1.92;;;22.40;85.30;;;;;;5044888;28;20359;-76
2023/07/22 10:54:10;;;;;;;9.15;1.83;;;22.40;85.10;;;;;;5050524;28;20024;-73
2023/07/22 10:56:35;;;;;;;4.60;1.90;;;22.50;85.10;;;;;;5049894;28;20032;-71
2023/07/22 10:59:02;;;;;;;7.55;1.80;;;22.50;84.80;;;;;;5049176;28;20029;-74
2023/07/22 11:01:28;;;;;;;5.57;1.35;;;22.40;84.70;;;;;;5042976;28;20438;-73
2023/07/22 11:04:34;;;;;;;6.45;1.73;;;22.50;84.60;;;;;;5045716;28;20096;-72
2023/07/22 11:07:05;;;;;;;3.97;1.30;;;22.50;84.50;;;;;;5013621;28;21546;-74
2023/07/22 11:09:32;;;;;;;5.10;1.25;;;22.50;84.10;;;;;;5047232;28;20025;-73
2023/07/22 11:12:05;;;;;;;5.10;1.30;;;22.60;83.00;;;;;;5048818;28;20112;-74
2023/07/22 11:14:49;;;;;;;3.83;1.30;;;22.60;82.40;;;;;;5040401;28;20038;-70
2023/07/22 11:17:15;;;;;;;4.55;1.15;;;22.60;82.60;;;;;;5041939;28;20031;-72
2023/07/22 11:19:41;;;;;;;5.03;1.35;;;22.60;82.10;;;;;;5051596;28;20025;-72
2023/07/22 11:22:07;;;;;;;4.00;1.55;;;22.60;81.80;;;;;;5046666;28;20025;-70
2023/07/22 11:24:37;;;;;;;3.78;1.33;;;22.70;81.30;;;;;;5043026;28;20478;-71
2023/07/22 11:27:05;;;;;;;3.03;1.08;;;22.60;81.00;;;;;;5042386;28;20029;-73
2023/07/22 11:29:31;;;;;;;3.42;0.82;;;22.70;81.00;;;;;;5059800;28;20032;-72
2023/07/22 11:31:57;;;;;;;6.07;1.15;;;22.70;81.00;;;;;;5045253;28;20090;-74
2023/07/22 11:34:24;;;;;;;6.70;1.30;;;22.80;81.30;;;;;;5052361;28;20092;-73
2023/07/22 11:36:51;;;;;;;3.75;1.33;;;22.70;81.20;;;;;;5052644;28;20045;-74
2023/07/22 11:39:19;;;;;;;5.47;1.35;;;22.80;81.10;;;;;;5050332;28;20025;-71
2023/07/22 11:41:46;;;;;;;6.25;1.60;;;22.80;80.70;;;;;;5034155;28;20021;-70
2023/07/22 11:44:19;;;;;;;4.97;1.35;;;22.80;80.90;;;;;;5049288;28;20561;-73
2023/07/22 11:47:04;;;;;;;5.38;1.13;;;22.80;81.10;;;;;;5049636;28;20537;-70
2023/07/22 11:49:35;;;;;;;4.32;1.25;;;22.80;81.00;;;;;;5055306;28;20489;-72
2023/07/22 11:52:02;;;;;;;6.45;1.02;;;22.80;81.10;;;;;;5055677;28;20033;-71
2023/07/22 11:54:28;;;;;;;6.22;1.25;;;22.90;81.00;;;;;;5053531;28;20021;-73
2023/07/22 11:56:57;;;;;;;3.97;1.00;;;22.90;81.00;;;;;;5042832;28;20026;-69
2023/07/22 11:59:43;;;;;;;3.65;1.00;;;22.90;81.10;;;;;;5042501;28;20057;-72
2023/07/22 12:02:14;;;;;;;4.97;1.30;;;22.90;80.90;;;;;;5047647;28;20017;-71
2023/07/22 12:04:39;;;;;;;4.93;1.10;;;23.00;81.00;;;;;;5035508;28;20038;-72
2023/07/22 12:07:05;;;;;;;5.03;1.00;;;22.90;80.80;;;;;;5050935;28;20040;-76
2023/07/22 12:09:31;;;;;;;6.53;1.08;;;22.90;81.40;;;;;;5026641;28;20037;-70
2023/07/22 12:11:59;;;;;;;6.13;1.70;;;23.00;81.10;;;;;;5041054;28;20025;-69
2023/07/22 12:14:36;;;;;;;4.63;1.45;;;23.00;81.00;;;;;;5051997;28;20044;-72
2023/07/22 12:17:02;;;;;;;5.45;1.40;;;23.00;79.90;;;;;;5052382;28;20623;-69
2023/07/22 12:19:29;;;;;;;3.13;1.30;;;23.00;79.60;;;;;;5061977;28;20013;-72
2023/07/22 12:21:55;;;;;;;4.38;1.40;;;23.10;79.90;;;;;;5053814;28;20025;-74
2023/07/22 12:24:21;;;;;;;4.03;1.13;;;23.00;79.40;;;;;;5053232;28;20474;-73
2023/07/22 12:26:46;;;;;;;3.92;1.13;;;23.00;79.40;;;;;;5057260;28;20553;-69
2023/07/22 12:29:12;;;;;;;2.42;1.15;;;23.10;79.20;;;;;;5050861;28;20602;-69
2023/07/22 12:31:38;;;;;;;3.20;1.00;;;23.00;79.00;;;;;;5050586;28;20067;-69
2023/07/22 12:34:06;;;;;;;3.38;0.85;;;23.10;79.00;;;;;;5052836;28;20025;-68
2023/07/22 12:36:32;;;;;;;6.28;1.75;;;23.10;78.70;;;;;;5034909;28;20025;-74